Time;durP1;ratioP1;P1;durP2;ratioP2;P2;SDS_P1;SDS_P2;PMS_P1;PMS_P2;Temp;Humidity;BMP_temperature;BMP_pressure;BME280_temperature;BME280_humidity;BME280_pressure;Samples;Min_cycle;Max_cycle;Signal;HPM_P1;HPM_P2
2021/07/22 00:02:11;;;;;;;;;17.75;16.75;;;;;25.65;41.85;101784.22;5002388;28;45389;-91
2021/07/22 00:04:36;;;;;;;;;17.75;16.25;;;;;25.60;42.10;101775.50;4976719;28;47882;-92
2021/07/22 00:07:02;;;;;;;;;21.00;18.00;;;;;25.61;41.86;101779.91;4987831;28;45435;-91
2021/07/22 00:09:28;;;;;;;;;19.75;16.50;;;;;25.58;42.13;101786.38;4976003;28;44770;-91
2021/07/22 00:11:53;;;;;;;;;17.75;17.25;;;;;25.52;42.17;101776.72;4990563;28;45448;-91
2021/07/22 00:14:19;;;;;;;;;19.50;16.50;;;;;25.55;42.27;101777.53;4975276;28;47161;-92
2021/07/22 00:16:45;;;;;;;;;16.25;16.25;;;;;25.51;42.15;101780.41;4978071;28;45330;-91
2021/07/22 00:19:11;;;;;;;;;16.50;16.50;;;;;25.47;42.53;101777.91;4981422;28;45267;-90
2021/07/22 00:21:37;;;;;;;;;15.75;15.75;;;;;25.45;42.17;101785.22;4982364;28;45192;-92
2021/07/22 00:24:03;;;;;;;;;16.00;14.25;;;;;25.41;42.35;101786.31;4981966;28;47298;-91
2021/07/22 00:26:31;;;;;;;;;20.75;19.00;;;;;25.37;42.32;101784.72;4982213;28;44760;-91
2021/07/22 00:28:58;;;;;;;;;18.00;18.00;;;;;25.37;42.93;101788.31;4989001;28;45361;-91
2021/07/22 00:31:24;;;;;;;;;16.75;15.75;;;;;25.36;42.31;101791.94;4994989;28;45293;-91
2021/07/22 00:33:49;;;;;;;;;20.25;18.00;;;;;25.32;42.50;101786.78;4980531;28;48358;-92
2021/07/22 00:36:16;;;;;;;;;20.00;17.50;;;;;25.28;42.87;101786.03;4982474;28;45960;-92
2021/07/22 00:38:43;;;;;;;;;19.50;16.25;;;;;25.24;42.64;101788.03;4980825;28;45218;-92
2021/07/22 00:41:11;;;;;;;;;19.25;19.25;;;;;25.26;42.76;101793.31;4982521;28;45535;-91
2021/07/22 00:43:39;;;;;;;;;18.00;16.00;;;;;25.18;42.87;101785.63;4974095;28;47180;-91
2021/07/22 00:46:05;;;;;;;;;15.50;14.50;;;;;25.18;42.93;101792.81;4975662;28;45317;-92
2021/07/22 00:48:34;;;;;;;;;18.50;16.75;;;;;25.14;43.52;101793.91;4975297;28;45212;-92
2021/07/22 00:50:59;;;;;;;;;19.00;16.50;;;;;25.06;42.82;101781.66;4976560;28;45387;-92
2021/07/22 00:53:25;;;;;;;;;17.00;16.50;;;;;25.04;43.31;101779.97;4984916;28;47112;-92
2021/07/22 00:55:50;;;;;;;;;17.00;16.00;;;;;25.01;43.46;101780.13;4976667;28;45512;-93
2021/07/22 00:58:16;;;;;;;;;18.50;18.50;;;;;25.02;43.50;101793.53;4977148;28;45449;-92
2021/07/22 01:00:42;;;;;;;;;16.00;15.50;;;;;25.00;43.54;101797.25;4970486;28;45282;-92
2021/07/22 01:03:07;;;;;;;;;17.00;17.00;;;;;24.94;43.46;101787.66;4985042;28;47036;-92
2021/07/22 01:05:35;;;;;;;;;17.50;13.75;;;;;24.89;43.27;101781.59;4977659;28;45429;-92
2021/07/22 01:08:01;;;;;;;;;19.25;16.75;;;;;24.89;44.03;101789.69;4984688;28;45251;-91
2021/07/22 01:10:26;;;;;;;;;20.50;17.75;;;;;24.84;43.78;101792.59;4976788;28;45364;-92
2021/07/22 01:12:52;;;;;;;;;16.50;15.75;;;;;24.80;43.50;101787.41;4972323;28;46841;-92
2021/07/22 01:15:17;;;;;;;;;18.00;18.00;;;;;24.78;44.35;101795.56;4977135;28;45294;-91
2021/07/22 01:17:46;;;;;;;;;17.00;15.75;;;;;24.76;44.23;101788.50;4984998;28;45263;-92
2021/07/22 01:20:13;;;;;;;;;20.25;17.00;;;;;24.73;44.50;101800.28;4988727;28;45304;-93
2021/07/22 01:22:41;;;;;;;;;20.75;17.75;;;;;24.70;44.34;101802.22;4979440;28;48270;-92
2021/07/22 01:25:08;;;;;;;;;13.25;13.00;;;;;24.68;44.53;101790.69;4969024;28;45259;-91
2021/07/22 01:27:33;;;;;;;;;18.00;17.00;;;;;24.70;44.22;101796.84;4986784;28;45307;-92
2021/07/22 01:29:59;;;;;;;;;17.00;15.25;;;;;24.66;44.69;101790.75;4976410;28;45350;-92
2021/07/22 01:32:24;;;;;;;;;21.75;17.75;;;;;24.62;44.21;101790.03;4994695;28;47237;-91
2021/07/22 01:34:50;;;;;;;;;16.00;15.75;;;;;24.60;44.52;101791.03;4976593;28;45444;-92
2021/07/22 01:37:15;;;;;;;;;14.75;14.75;;;;;24.54;44.49;101792.19;4979113;28;45513;-92
2021/07/22 01:39:41;;;;;;;;;18.25;17.00;;;;;24.50;44.59;101789.69;4981850;28;45412;-92
2021/07/22 01:42:09;;;;;;;;;17.00;16.00;;;;;24.46;44.73;101791.66;4973882;28;46943;-92
2021/07/22 01:44:35;;;;;;;;;19.00;18.00;;;;;24.46;45.17;101780.00;4976199;28;46188;-92
2021/07/22 01:47:03;;;;;;;;;20.00;19.75;;;;;24.42;44.98;101788.19;4980239;28;45178;-91
2021/07/22 01:49:28;;;;;;;;;17.00;15.00;;;;;24.42;45.03;101798.09;4973155;28;45182;-92
2021/07/22 01:51:54;;;;;;;;;18.25;18.25;;;;;24.34;44.76;101795.72;4978177;28;47079;-90
2021/07/22 01:54:19;;;;;;;;;17.50;17.50;;;;;24.36;45.24;101787.59;4982432;28;45645;-91
2021/07/22 01:56:45;;;;;;;;;20.25;19.25;;;;;24.33;44.88;101793.13;4975973;28;45365;-92
2021/07/22 01:59:10;;;;;;;;;17.50;16.50;;;;;24.33;45.09;101793.13;4989143;28;45440;-91
2021/07/22 02:01:36;;;;;;;;;16.25;14.25;;;;;24.28;45.52;101782.56;4998362;28;47001;-92
2021/07/22 02:04:01;;;;;;;;;16.00;15.25;;;;;24.26;45.42;101784.44;4975996;28;45304;-92
2021/07/22 02:06:27;;;;;;;;;18.75;16.00;;;;;24.29;45.62;101786.97;4979327;28;45475;-92
2021/07/22 02:08:52;;;;;;;;;19.25;18.50;;;;;24.26;45.02;101791.63;4987267;28;45477;-92
2021/07/22 02:11:18;;;;;;;;;21.25;17.25;;;;;24.20;45.52;101773.94;4986925;28;46938;-91
2021/07/22 02:13:46;;;;;;;;;21.25;20.00;;;;;24.21;45.45;101783.75;4989923;28;45324;-93
2021/07/22 02:16:11;;;;;;;;;21.25;17.50;;;;;24.18;45.42;101783.91;4990444;28;45222;-91
2021/07/22 02:18:37;;;;;;;;;19.00;17.25;;;;;24.10;45.77;101776.16;4996168;28;44960;-89
2021/07/22 02:21:06;;;;;;;;;20.50;19.50;;;;;24.12;45.50;101787.75;4993913;28;47202;-91
2021/07/22 02:23:33;;;;;;;;;20.25;16.75;;;;;24.10;45.88;101783.38;4973113;28;45464;-90
2021/07/22 02:26:03;;;;;;;;;18.00;16.25;;;;;24.08;45.66;101788.78;4967123;28;45323;-92
2021/07/22 02:28:29;;;;;;;;;21.75;19.50;;;;;24.09;45.60;101789.69;4970400;28;45572;-91
2021/07/22 02:30:54;;;;;;;;;18.00;17.00;;;;;24.06;46.05;101781.72;4976959;28;48226;-91
2021/07/22 02:33:21;;;;;;;;;19.50;18.25;;;;;24.07;45.68;101783.50;4970807;28;45611;-91
2021/07/22 02:35:46;;;;;;;;;19.00;18.50;;;;;24.01;45.89;101778.41;4986546;28;45311;-91
2021/07/22 02:38:12;;;;;;;;;18.75;17.50;;;;;23.96;45.99;101792.91;4971114;28;45489;-90
2021/07/22 02:40:39;;;;;;;;;22.25;19.25;;;;;23.90;45.73;101778.88;4976647;28;48063;-91
2021/07/22 02:43:04;;;;;;;;;18.00;16.75;;;;;23.89;46.14;101783.34;4974568;28;45442;-91
2021/07/22 02:45:32;;;;;;;;;20.75;20.75;;;;;23.89;45.85;101774.41;4985901;28;45497;-91
2021/07/22 02:47:58;;;;;;;;;21.00;18.00;;;;;23.84;45.84;101782.66;4974760;28;45334;-92
2021/07/22 02:50:23;;;;;;;;;18.00;16.00;;;;;23.84;45.87;101777.28;4975126;28;47032;-92
2021/07/22 02:52:49;;;;;;;;;19.00;17.75;;;;;23.82;46.41;101783.66;4994367;28;45187;-91
2021/07/22 02:55:15;;;;;;;;;22.50;19.50;;;;;23.82;46.34;101786.34;4975374;28;45409;-90
2021/07/22 02:57:43;;;;;;;;;22.25;17.00;;;;;23.79;46.35;101784.69;4982259;28;44830;-91
2021/07/22 03:00:08;;;;;;;;;18.50;16.75;;;;;23.78;46.44;101791.88;4990851;28;46361;-91
2021/07/22 03:02:34;;;;;;;;;20.25;18.25;;;;;23.77;46.61;101789.25;4984685;28;45460;-91
2021/07/22 03:05:00;;;;;;;;;20.00;18.00;;;;;23.73;46.64;101788.50;4980311;28;44671;-90
2021/07/22 03:07:26;;;;;;;;;21.00;19.25;;;;;23.70;46.81;101787.72;4982854;28;44970;-91
2021/07/22 03:09:51;;;;;;;;;25.50;20.00;;;;;23.72;47.02;101792.13;4978227;28;47152;-90
2021/07/22 03:12:17;;;;;;;;;19.00;18.00;;;;;23.66;46.85;101783.44;4968266;28;45178;-90
2021/07/22 03:14:45;;;;;;;;;22.00;18.75;;;;;23.66;46.78;101791.50;4976514;28;44681;-92
2021/07/22 03:17:10;;;;;;;;;23.25;21.25;;;;;23.63;46.88;101795.19;4956442;28;44821;-91
2021/07/22 03:19:36;;;;;;;;;17.50;16.75;;;;;23.59;46.90;101784.63;4959203;28;46942;-91
2021/07/22 03:22:04;;;;;;;;;20.75;18.50;;;;;23.60;47.35;101786.34;4970562;28;45361;-91
2021/07/22 03:24:37;;;;;;;;;21.00;20.25;;;;;23.55;47.08;101782.06;4971606;28;45333;-91
2021/07/22 03:27:02;;;;;;;;;20.75;20.25;;;;;23.56;47.36;101791.00;4956254;28;45369;-91
2021/07/22 03:29:28;;;;;;;;;23.50;19.75;;;;;23.54;47.52;101791.03;4959852;28;47836;-90
2021/07/22 03:31:57;;;;;;;;;23.50;22.00;;;;;23.52;47.43;101797.41;4974935;28;45319;-91
2021/07/22 03:34:22;;;;;;;;;19.75;17.75;;;;;23.52;47.46;101795.63;4971257;28;45297;-90
2021/07/22 03:36:47;;;;;;;;;20.00;19.25;;;;;23.47;47.64;101789.56;4951454;28;45493;-90
2021/07/22 03:39:13;;;;;;;;;21.25;20.25;;;;;23.48;47.67;101793.13;4960223;28;47417;-91
2021/07/22 03:41:47;;;;;;;;;21.00;21.00;;;;;23.48;47.50;101795.81;4968460;28;46533;-90
2021/07/22 03:44:13;;;;;;;;;23.25;19.50;;;;;23.46;47.72;101795.88;4968443;28;45266;-90
2021/07/22 03:46:38;;;;;;;;;18.25;18.25;;;;;23.43;47.89;101792.44;4947692;28;45288;-91
2021/07/22 03:49:06;;;;;;;;;18.75;16.50;;;;;23.41;47.90;101788.94;4962133;28;46936;-91
2021/07/22 03:51:32;;;;;;;;;18.75;17.25;;;;;23.39;48.31;101791.69;4953908;28;45336;-89
2021/07/22 03:53:57;;;;;;;;;21.50;20.50;;;;;23.36;48.24;101786.41;4986128;28;45341;-90
2021/07/22 03:56:22;;;;;;;;;20.75;20.25;;;;;23.33;48.22;101786.53;4948246;28;45441;-90
2021/07/22 03:58:48;;;;;;;;;22.75;21.00;;;;;23.33;48.19;101789.22;4962873;28;47334;-90
2021/07/22 04:01:13;;;;;;;;;19.75;17.50;;;;;23.32;48.21;101788.38;4975257;28;45247;-89
2021/07/22 04:03:39;;;;;;;;;19.25;18.75;;;;;23.33;47.97;101791.91;4981641;28;45399;-90
2021/07/22 04:06:04;;;;;;;;;19.00;18.25;;;;;23.27;48.02;101792.19;4972886;28;45679;-90
2021/07/22 04:08:30;;;;;;;;;22.75;21.50;;;;;23.26;48.30;101798.50;4991139;28;48096;-91
2021/07/22 04:10:56;;;;;;;;;20.50;19.25;;;;;23.21;48.08;101787.94;4987088;28;45511;-90
2021/07/22 04:13:22;;;;;;;;;17.50;17.25;;;;;23.22;48.19;101786.97;4991400;28;45167;-91
2021/07/22 04:15:47;;;;;;;;;22.00;19.75;;;;;23.20;48.25;101786.19;4986725;28;45185;-92
2021/07/22 04:18:12;;;;;;;;;23.00;21.25;;;;;23.18;48.15;101789.88;4982109;28;47363;-91
2021/07/22 04:20:38;;;;;;;;;24.50;22.25;;;;;23.13;48.40;101784.66;4978842;28;45251;-91
2021/07/22 04:23:03;;;;;;;;;21.75;20.75;;;;;23.10;48.29;101790.16;4981751;28;44730;-90
2021/07/22 04:25:29;;;;;;;;;20.75;18.50;;;;;23.12;48.17;101799.03;4984743;28;45300;-90
2021/07/22 04:28:00;;;;;;;;;19.00;19.00;;;;;23.09;48.34;101794.66;4989624;28;47293;-90
2021/07/22 04:30:28;;;;;;;;;18.75;18.75;;;;;23.08;48.15;101795.59;4973347;28;45179;-89
2021/07/22 04:32:57;;;;;;;;;19.50;19.50;;;;;23.06;48.64;101804.66;4996151;28;45257;-90
2021/07/22 04:35:22;;;;;;;;;22.75;20.75;;;;;23.00;48.13;101805.75;4971888;28;45252;-90
2021/07/22 04:37:48;;;;;;;;;24.25;20.00;;;;;23.00;48.03;101808.44;4978302;28;45694;-91
2021/07/22 04:40:13;;;;;;;;;17.50;16.50;;;;;22.98;48.45;101815.69;4982171;28;44859;-90
2021/07/22 04:42:39;;;;;;;;;25.50;23.00;;;;;22.99;48.44;101805.81;4982893;28;44817;-90
2021/07/22 04:45:05;;;;;;;;;19.00;18.00;;;;;22.99;48.50;101809.38;4985913;28;45397;-89
2021/07/22 04:47:33;;;;;;;;;20.75;18.75;;;;;22.98;48.38;101809.44;4978004;28;46994;-92
2021/07/22 04:49:58;;;;;;;;;18.00;17.25;;;;;23.00;48.74;101816.50;4969545;28;44718;-91
2021/07/22 04:52:26;;;;;;;;;22.00;18.50;;;;;22.94;48.97;101805.97;4990296;28;45231;-89
2021/07/22 04:54:55;;;;;;;;;17.25;16.75;;;;;22.97;48.44;101818.44;4986371;28;45411;-91
2021/07/22 04:57:21;;;;;;;;;20.25;18.75;;;;;22.96;48.63;101811.25;4975382;28;47215;-91
2021/07/22 04:59:46;;;;;;;;;19.50;18.75;;;;;23.02;48.50;101821.81;4984945;28;46155;-91
2021/07/22 05:02:12;;;;;;;;;19.50;18.50;;;;;23.00;48.71;101813.81;4987190;28;45329;-91
2021/07/22 05:04:37;;;;;;;;;24.25;22.50;;;;;23.02;48.93;101824.53;4987495;28;45248;-90
2021/07/22 05:07:04;;;;;;;;;23.25;21.75;;;;;23.01;48.87;101820.94;4988253;28;48226;-91
2021/07/22 05:09:33;;;;;;;;;19.25;18.25;;;;;23.04;48.52;101822.63;4985683;28;45819;-92
2021/07/22 05:11:58;;;;;;;;;20.50;20.00;;;;;23.05;48.70;101827.94;4989540;28;45328;-90
2021/07/22 05:14:23;;;;;;;;;22.75;21.50;;;;;23.04;48.67;101818.16;4964746;28;45496;-83
2021/07/22 05:16:49;;;;;;;;;22.00;18.25;;;;;23.07;48.93;101822.53;4962682;28;48428;-82
2021/07/22 05:19:15;;;;;;;;;22.75;20.00;;;;;23.06;48.58;101827.00;4961390;28;45353;-84
2021/07/22 05:21:41;;;;;;;;;25.50;22.00;;;;;23.08;48.58;101829.63;4963602;28;45206;-84
2021/07/22 05:24:06;;;;;;;;;20.75;20.25;;;;;23.08;48.15;101825.13;4962589;28;45234;-85
2021/07/22 05:26:32;;;;;;;;;26.75;24.75;;;;;23.11;48.35;101827.69;4962638;28;47145;-89
2021/07/22 05:28:57;;;;;;;;;21.25;18.75;;;;;23.16;48.62;101829.34;4975602;28;45294;-86
2021/07/22 05:31:22;;;;;;;;;18.00;18.00;;;;;23.16;48.27;101823.97;4980746;28;45733;-85
2021/07/22 05:33:48;;;;;;;;;23.50;20.50;;;;;23.18;47.91;101824.81;4964502;28;45363;-84
2021/07/22 05:36:13;;;;;;;;;21.00;19.25;;;;;23.18;48.57;101825.66;4963017;28;47239;-85
2021/07/22 05:38:38;;;;;;;;;23.00;21.25;;;;;23.24;48.08;101829.94;4961007;28;45740;-83
2021/07/22 05:41:11;;;;;;;;;23.50;22.50;;;;;23.24;48.47;101821.84;4964609;28;45290;-84
2021/07/22 05:43:38;;;;;;;;;22.50;19.75;;;;;23.26;47.89;101823.56;4961439;28;45552;-84
2021/07/22 05:46:04;;;;;;;;;20.50;19.00;;;;;23.27;47.77;101819.91;4961547;28;47827;-84
2021/07/22 05:48:29;;;;;;;;;22.75;21.50;;;;;23.33;47.87;101830.44;4961312;28;45470;-84
2021/07/22 05:51:05;;;;;;;;;22.00;20.25;;;;;23.35;48.13;101825.00;4962930;28;45683;-85
2021/07/22 05:53:30;;;;;;;;;21.50;19.75;;;;;23.38;47.87;101832.06;4980637;28;45907;-82
2021/07/22 05:56:02;;;;;;;;;21.00;19.75;;;;;23.39;47.58;101831.09;4963249;28;46261;-86
2021/07/22 05:58:27;;;;;;;;;19.50;17.00;;;;;23.40;47.71;101823.00;4963308;28;45266;-87
2021/07/22 06:00:53;;;;;;;;;20.50;19.50;;;;;23.43;47.30;101822.88;4992103;28;45499;-91
2021/07/22 06:03:18;;;;;;;;;21.00;19.50;;;;;23.48;47.47;101822.69;4953016;28;45336;-92
2021/07/22 06:05:44;;;;;;;;;21.75;19.25;;;;;23.49;47.85;101828.00;4997538;28;46309;-94
2021/07/22 06:08:12;;;;;;;;;20.75;18.00;;;;;23.50;47.52;101826.19;4985559;28;44779;-93
2021/07/22 06:10:38;;;;;;;;;18.50;17.50;;;;;23.52;47.71;101819.81;4975264;28;45362;-93
2021/07/22 06:13:06;;;;;;;;;22.00;19.00;;;;;23.59;47.34;101827.63;4980686;28;45318;-94
2021/07/22 06:15:32;;;;;;;;;22.75;21.50;;;;;23.60;47.63;101827.56;4977212;28;47322;-90
2021/07/22 06:17:57;;;;;;;;;22.50;19.50;;;;;23.67;47.15;101834.44;4977291;28;45183;-93
2021/07/22 06:20:25;;;;;;;;;19.00;16.75;;;;;23.70;47.36;101828.06;4980009;28;45311;-90
2021/07/22 06:22:53;;;;;;;;;17.00;15.25;;;;;23.77;47.21;101837.66;4968865;28;45560;-89
2021/07/22 06:25:18;;;;;;;;;26.00;22.00;;;;;23.70;46.84;101828.06;4948417;28;47071;-88
2021/07/22 06:27:44;;;;;;;;;22.25;21.75;;;;;23.69;46.62;101821.81;4973512;28;45713;-90
2021/07/22 06:30:11;;;;;;;;;18.25;18.25;;;;;23.70;46.57;101828.06;4968807;28;45295;-88
2021/07/22 06:32:37;;;;;;;;;25.00;20.50;;;;;23.69;46.90;101827.19;4983468;28;45271;-88
2021/07/22 06:35:04;;;;;;;;;20.00;18.75;;;;;23.72;47.17;101828.91;4948167;28;46112;-90
2021/07/22 06:37:44;;;;;;;;;28.50;26.50;;;;;23.75;46.84;101823.41;4956657;28;45204;-89
2021/07/22 06:40:12;;;;;;;;;28.00;23.75;;;;;23.72;46.89;101823.53;4949388;28;45320;-89
2021/07/22 06:42:38;;;;;;;;;19.75;18.00;;;;;23.73;46.73;101827.97;4953868;28;45580;-89
2021/07/22 06:45:04;;;;;;;;;22.25;21.00;;;;;23.72;46.26;101818.16;4944711;28;45991;-89
2021/07/22 06:47:29;;;;;;;;;20.00;18.75;;;;;23.78;46.68;101820.56;4974343;28;45289;-88
2021/07/22 06:49:55;;;;;;;;;21.00;19.00;;;;;23.80;46.45;101818.72;4959031;28;45267;-89
2021/07/22 06:52:20;;;;;;;;;23.00;21.50;;;;;23.92;46.28;101826.28;4962909;28;45595;-88
2021/07/22 06:54:45;;;;;;;;;19.00;16.50;;;;;23.97;46.00;101815.28;4944545;28;47703;-88
2021/07/22 06:57:11;;;;;;;;;18.00;18.00;;;;;24.04;45.30;101832.94;4958725;28;46109;-90
2021/07/22 06:59:36;;;;;;;;;21.75;19.25;;;;;24.09;45.54;101821.97;4955374;28;45421;-92
2021/07/22 07:02:02;;;;;;;;;21.25;17.50;;;;;24.16;45.52;101824.34;4995565;28;45816;-85
2021/07/22 07:04:27;;;;;;;;;17.50;16.25;;;;;24.23;44.92;101824.94;4974127;28;46126;-85
2021/07/22 07:06:53;;;;;;;;;19.00;15.75;;;;;24.31;45.44;101824.59;4976206;28;45254;-84
2021/07/22 07:09:18;;;;;;;;;19.75;18.75;;;;;24.35;44.87;101827.09;4970942;28;45528;-92
2021/07/22 07:11:44;;;;;;;;;20.25;18.25;;;;;24.41;44.84;101817.88;4961136;28;45395;-86
2021/07/22 07:14:09;;;;;;;;;21.00;19.25;;;;;24.51;44.85;101830.03;4943133;28;48286;-86
2021/07/22 07:16:34;;;;;;;;;18.00;16.50;;;;;24.54;44.10;101827.19;4961845;28;45330;-85
2021/07/22 07:19:00;;;;;;;;;19.50;18.50;;;;;24.67;44.21;101837.38;4960990;28;45617;-85
2021/07/22 07:21:25;;;;;;;;;17.75;15.00;;;;;24.72;43.85;101828.16;4944942;28;45239;-87
2021/07/22 07:23:51;;;;;;;;;19.75;17.75;;;;;24.80;43.80;101825.13;4961694;28;47043;-87
2021/07/22 07:26:16;;;;;;;;;17.00;16.25;;;;;24.88;42.97;101825.63;4944868;28;45886;-86
2021/07/22 07:28:41;;;;;;;;;16.75;16.75;;;;;24.95;43.09;101826.22;4964876;28;45280;-87
2021/07/22 07:31:07;;;;;;;;;19.75;18.75;;;;;25.04;42.52;101831.19;4965026;28;45440;-87
2021/07/22 07:33:32;;;;;;;;;17.50;17.25;;;;;25.15;42.88;101831.56;4960071;28;48239;-88
2021/07/22 07:35:58;;;;;;;;;19.25;18.25;;;;;25.23;42.66;101839.28;4944081;28;46020;-82
2021/07/22 07:38:24;;;;;;;;;18.00;18.00;;;;;25.32;42.27;101840.69;4944901;28;45363;-81
2021/07/22 07:40:50;;;;;;;;;15.50;15.50;;;;;25.37;42.14;101828.75;4963851;28;45242;-81
2021/07/22 07:43:17;;;;;;;;;17.75;17.75;;;;;25.45;41.25;101828.38;4945813;28;47872;-84
2021/07/22 07:45:42;;;;;;;;;20.25;19.50;;;;;25.51;41.47;101831.63;4963623;28;45399;-81
2021/07/22 07:48:08;;;;;;;;;17.25;16.00;;;;;25.60;41.26;101830.28;4946361;28;45422;-82
2021/07/22 07:50:34;;;;;;;;;13.75;12.25;;;;;25.68;40.95;101832.63;4946652;28;45328;-82
2021/07/22 07:52:59;;;;;;;;;18.25;16.25;;;;;25.69;40.10;101829.00;4963837;28;48068;-81
2021/07/22 07:55:25;;;;;;;;;19.75;19.25;;;;;25.69;40.25;101831.69;4957400;28;45323;-82
2021/07/22 07:57:50;;;;;;;;;19.75;17.50;;;;;25.78;40.20;101828.50;4965182;28;45294;-84
2021/07/22 08:00:16;;;;;;;;;16.50;16.25;;;;;25.87;40.65;101828.06;4969448;28;45457;-87
2021/07/22 08:02:47;;;;;;;;;16.75;16.75;;;;;25.98;40.18;101829.34;4986642;28;47384;-87
2021/07/22 08:05:12;;;;;;;;;19.75;17.50;;;;;26.05;40.56;101820.88;4985438;28;45476;-89
2021/07/22 08:07:38;;;;;;;;;18.00;17.25;;;;;26.16;39.32;101815.78;4980028;28;45787;-89
2021/07/22 08:10:03;;;;;;;;;13.50;12.75;;;;;26.21;39.49;101820.94;4964970;28;45401;-89
2021/07/22 08:12:30;;;;;;;;;17.00;17.00;;;;;26.34;39.27;101822.06;4980182;28;47712;-89
2021/07/22 08:14:55;;;;;;;;;16.25;15.25;;;;;26.40;38.95;101821.72;4985267;28;45214;-88
2021/07/22 08:17:25;;;;;;;;;14.50;14.50;;;;;26.52;38.52;101820.25;4966984;28;45426;-89
2021/07/22 08:19:50;;;;;;;;;16.75;16.00;;;;;26.61;38.26;101824.28;4978609;28;45481;-88
2021/07/22 08:22:17;;;;;;;;;16.75;15.25;;;;;26.71;37.94;101822.81;4974501;28;47009;-88
2021/07/22 08:24:43;;;;;;;;;13.25;12.00;;;;;26.78;38.44;101813.44;4977412;28;45375;-87
2021/07/22 08:27:08;;;;;;;;;15.25;14.00;;;;;26.90;38.07;101824.53;4966549;28;45286;-82
2021/07/22 08:29:38;;;;;;;;;16.25;14.50;;;;;26.97;36.70;101820.50;4969890;28;45495;-82
2021/07/22 08:32:07;;;;;;;;;13.50;13.50;;;;;27.02;36.29;101813.91;4982176;28;47406;-81
2021/07/22 08:34:32;;;;;;;;;14.25;14.00;;;;;27.12;37.09;101822.34;4972013;28;45400;-90
2021/07/22 08:37:05;;;;;;;;;19.50;16.00;;;;;27.24;36.76;101826.25;4970862;28;45401;-81
2021/07/22 08:39:36;;;;;;;;;14.25;14.00;;;;;27.33;36.87;101814.91;4964450;28;45854;-82
2021/07/22 08:42:04;;;;;;;;;19.25;14.50;;;;;27.44;36.80;101816.97;4961703;28;46104;-80
2021/07/22 08:44:29;;;;;;;;;18.00;16.00;;;;;27.58;36.93;101821.59;4973790;28;45380;-80
2021/07/22 08:46:57;;;;;;;;;15.75;15.00;;;;;27.68;36.31;101822.81;4974667;28;45424;-80
2021/07/22 08:49:23;;;;;;;;;22.25;21.00;;;;;27.76;35.31;101823.22;4964570;28;45519;-79
2021/07/22 08:51:50;;;;;;;;;19.00;16.25;;;;;27.79;35.89;101822.16;4967505;28;46110;-80
2021/07/22 08:54:16;;;;;;;;;18.50;16.50;;;;;27.79;35.31;101820.31;4979587;28;45786;-82
2021/07/22 08:56:41;;;;;;;;;18.25;17.50;;;;;27.77;35.11;101816.84;4968653;28;45251;-82
2021/07/22 08:59:08;;;;;;;;;19.75;17.00;;;;;27.75;35.94;101817.88;4967135;28;45662;-80
2021/07/22 09:01:36;;;;;;;;;15.75;15.75;;;;;27.82;35.90;101822.00;4984833;28;45296;-80
2021/07/22 09:04:02;;;;;;;;;16.75;16.00;;;;;27.87;35.61;101819.91;4979724;28;45484;-81
2021/07/22 09:06:27;;;;;;;;;18.75;17.00;;;;;27.95;35.85;101827.56;4966348;28;45523;-81
2021/07/22 09:08:54;;;;;;;;;17.75;14.75;;;;;28.05;35.69;101826.94;4966670;28;45369;-82
2021/07/22 09:11:20;;;;;;;;;9.50;8.00;;;;;28.13;35.76;101824.63;4976884;28;45548;-81
2021/07/22 09:13:49;;;;;;;;;19.00;17.00;;;;;28.16;35.07;101829.00;4967368;28;45292;-81
2021/07/22 09:16:15;;;;;;;;;18.75;16.50;;;;;28.19;35.61;101830.66;4965074;28;45665;-81
2021/07/22 09:18:44;;;;;;;;;21.00;19.25;;;;;28.21;35.11;101816.06;4961599;28;45383;-81
2021/07/22 09:21:21;;;;;;;;;17.75;15.75;;;;;28.22;34.67;101820.50;4969750;28;45555;-86
2021/07/22 09:24:10;;;;;;;;;20.75;17.25;;;;;28.20;35.13;101827.84;4965996;28;45672;-92
2021/07/22 09:26:38;;;;;;;;;16.50;15.25;;;;;28.24;35.15;101823.97;4976523;28;45565;-85
2021/07/22 09:29:09;;;;;;;;;18.75;16.75;;;;;28.22;35.25;101822.34;4961699;28;45499;-84
2021/07/22 09:31:36;;;;;;;;;18.25;18.00;;;;;28.27;35.64;101826.50;4963620;28;48270;-84
2021/07/22 09:34:02;;;;;;;;;18.25;17.75;;;;;28.36;35.55;101825.06;4967975;28;45512;-87
2021/07/22 09:36:32;;;;;;;;;18.00;16.50;;;;;28.47;35.01;101829.84;4973159;28;45502;-86
2021/07/22 09:39:17;;;;;;;;;11.50;11.50;;;;;28.55;35.39;101824.84;4964677;28;45446;-85
2021/07/22 09:41:43;;;;;;;;;18.00;18.00;;;;;28.58;35.07;101821.94;4947935;28;48176;-82
2021/07/22 09:44:28;;;;;;;;;14.75;14.25;;;;;28.68;35.23;101817.69;4957236;28;45369;-84
2021/07/22 09:46:54;;;;;;;;;17.25;16.50;;;;;28.71;35.17;101819.31;4961813;28;45348;-91
2021/07/22 09:49:19;;;;;;;;;18.50;17.75;;;;;28.79;34.77;101817.88;4949308;28;45496;-89
2021/07/22 09:51:45;;;;;;;;;14.50;14.25;;;;;28.83;34.77;101815.84;4967470;28;48032;-92
2021/07/22 09:54:12;;;;;;;;;16.00;14.25;;;;;28.85;34.76;101811.19;4960700;28;45400;-85
2021/07/22 09:56:39;;;;;;;;;17.75;17.00;;;;;28.84;34.30;101809.44;4965968;28;45482;-86
2021/07/22 09:59:06;;;;;;;;;12.75;12.00;;;;;28.75;34.86;101794.63;4944042;28;45383;-85
2021/07/22 10:01:40;;;;;;;;;22.00;19.00;;;;;28.77;34.81;101800.84;4973052;28;46175;-86
2021/07/22 10:04:07;;;;;;;;;14.00;14.00;;;;;28.72;34.26;101793.97;4972293;28;45352;-84
2021/07/22 10:06:35;;;;;;;;;18.25;17.25;;;;;28.68;34.98;101793.31;4962262;28;45541;-86
2021/07/22 10:09:03;;;;;;;;;16.00;16.00;;;;;28.74;34.65;101792.91;4997569;28;45610;-84
2021/07/22 10:11:29;;;;;;;;;14.75;14.75;;;;;28.84;34.91;101792.31;4971030;28;46289;-86
2021/07/22 10:14:03;;;;;;;;;14.00;13.25;;;;;29.00;34.99;101798.47;4968902;28;45669;-89
2021/07/22 10:16:30;;;;;;;;;13.75;13.50;;;;;29.08;34.34;101781.75;4971614;28;45464;-90
2021/07/22 10:19:03;;;;;;;;;17.00;17.00;;;;;29.18;34.48;101782.88;4963774;28;45245;-86
2021/07/22 10:21:30;;;;;;;;;17.50;16.00;;;;;29.32;34.23;101784.69;4962067;28;47045;-92
2021/07/22 10:23:57;;;;;;;;;14.00;14.00;;;;;29.48;33.38;101784.53;4977626;28;45442;-86
2021/07/22 10:26:43;;;;;;;;;15.00;14.75;;;;;29.62;33.32;101789.94;4976359;28;45425;-88
2021/07/22 10:29:15;;;;;;;;;12.25;12.25;;;;;29.67;33.10;101775.09;4969883;28;45613;-86
2021/07/22 10:31:54;;;;;;;;;15.50;15.50;;;;;29.81;33.69;101766.00;4989936;28;46525;-87
2021/07/22 10:34:21;;;;;;;;;14.00;13.50;;;;;29.95;33.17;101769.63;4961442;28;45575;-87
2021/07/22 10:36:55;;;;;;;;;14.50;12.00;;;;;30.12;32.94;101774.72;4965878;28;45455;-91
2021/07/22 10:39:59;;;;;;;;;15.25;15.25;;;;;30.31;32.40;101771.63;4971347;28;45283;-90
2021/07/22 10:42:43;;;;;;;;;12.50;10.75;;;;;30.30;32.38;101764.44;4961811;28;46676;-85
2021/07/22 10:45:21;;;;;;;;;13.75;12.75;;;;;30.48;32.05;101756.84;4973059;28;45262;-85
2021/07/22 10:47:58;;;;;;;;;12.25;11.75;;;;;30.68;31.76;101767.13;4966166;28;45397;-90
2021/07/22 10:50:45;;;;;;;;;14.25;14.00;;;;;30.86;31.69;101766.81;4969654;28;45505;-87
2021/07/22 10:53:13;;;;;;;;;16.00;14.50;;;;;31.00;31.96;101758.50;4979585;28;47996;-89
2021/07/22 10:55:42;;;;;;;;;13.50;12.50;;;;;31.04;29.55;101760.03;4960576;28;45247;-89
2021/07/22 10:58:33;;;;;;;;;12.75;11.75;;;;;30.87;30.13;101761.25;4962492;28;45528;-85
2021/07/22 11:00:59;;;;;;;;;14.00;14.00;;;;;30.79;30.42;101758.19;4973294;28;46268;-84
2021/07/22 11:03:54;;;;;;;;;11.50;11.50;;;;;30.78;29.90;101753.75;4967541;28;46176;-85
2021/07/22 11:06:19;;;;;;;;;14.50;13.25;;;;;30.75;30.78;101763.00;4966864;28;45363;-83
2021/07/22 11:09:05;;;;;;;;;14.25;14.25;;;;;30.80;29.75;101748.22;4971966;28;45259;-85
2021/07/22 11:11:49;;;;;;;;;12.00;11.25;;;;;30.80;30.41;101745.50;4960712;28;45496;-85